sensor_id;sensor_type;location;lat;lon;timestamp;pressure;altitude;pressure_sealevel;temperature;humidity
54465;BME280;40374;49.480;20.016;2023-04-10T00:00:06;95634.84;;;2.81;100.00
54465;BME280;40374;49.480;20.016;2023-04-10T00:02:54;95629.00;;;2.66;100.00
54465;BME280;40374;49.480;20.016;2023-04-10T00:05:22;95628.41;;;2.64;100.00
54465;BME280;40374;49.480;20.016;2023-04-10T00:07:50;95629.84;;;2.60;100.00
54465;BME280;40374;49.480;20.016;2023-04-10T00:10:17;95607.03;;;2.46;100.00
54465;BME280;40374;49.480;20.016;2023-04-10T00:12:45;95623.97;;;2.51;100.00
54465;BME280;40374;49.480;20.016;2023-04-10T00:15:13;95622.72;;;2.54;100.00
54465;BME280;40374;49.480;20.016;2023-04-10T00:17:40;95618.84;;;2.56;100.00
54465;BME280;40374;49.480;20.016;2023-04-10T00:20:08;95622.72;;;2.60;100.00
54465;BME280;40374;49.480;20.016;2023-04-10T00:22:36;95608.25;;;2.50;100.00
54465;BME280;40374;49.480;20.016;2023-04-10T00:25:03;95610.66;;;2.58;100.00
54465;BME280;40374;49.480;20.016;2023-04-10T00:27:32;95617.59;;;2.59;100.00
54465;BME280;40374;49.480;20.016;2023-04-10T00:30:00;95616.41;;;2.55;100.00
54465;BME280;40374;49.480;20.016;2023-04-10T00:32:28;95602.97;;;2.43;100.00
54465;BME280;40374;49.480;20.016;2023-04-10T00:34:56;95607.53;;;2.36;100.00
54465;BME280;40374;49.480;20.016;2023-04-10T00:37:24;95606.34;;;2.25;100.00
54465;BME280;40374;49.480;20.016;2023-04-10T00:39:52;95604.81;;;2.04;100.00
54465;BME280;40374;49.480;20.016;2023-04-10T00:42:19;95606.63;;;2.03;100.00
54465;BME280;40374;49.480;20.016;2023-04-10T00:44:47;95603.63;;;1.93;100.00
54465;BME280;40374;49.480;20.016;2023-04-10T00:47:15;95601.81;;;1.87;100.00
54465;BME280;40374;49.480;20.016;2023-04-10T00:49:43;95598.34;;;1.80;100.00
54465;BME280;40374;49.480;20.016;2023-04-10T00:52:11;95595.28;;;1.83;100.00
54465;BME280;40374;49.480;20.016;2023-04-10T00:54:39;95604.81;;;1.97;100.00
54465;BME280;40374;49.480;20.016;2023-04-10T00:57:06;95602.16;;;1.97;100.00
54465;BME280;40374;49.480;20.016;2023-04-10T00:59:34;95606.63;;;2.03;100.00
54465;BME280;40374;49.480;20.016;2023-04-10T01:02:02;95601.53;;;2.09;100.00
54465;BME280;40374;49.480;20.016;2023-04-10T01:04:31;95600.69;;;2.15;100.00
54465;BME280;40374;49.480;20.016;2023-04-10T01:12:45;95612.03;;;2.35;100.00
54465;BME280;40374;49.480;20.016;2023-04-10T01:15:20;95586.13;;;2.24;100.00
54465;BME280;40374;49.480;20.016;2023-04-10T01:18:04;95606.31;;;2.32;100.00
54465;BME280;40374;49.480;20.016;2023-04-10T01:20:37;95601.16;;;2.37;100.00
54465;BME280;40374;49.480;20.016;2023-04-10T01:25:42;95604.31;;;2.27;100.00
54465;BME280;40374;49.480;20.016;2023-04-10T01:28:19;95608.41;;;2.23;100.00
54465;BME280;40374;49.480;20.016;2023-04-10T01:30:53;95611.16;;;2.41;100.00
54465;BME280;40374;49.480;20.016;2023-04-10T01:33:29;95613.22;;;2.39;100.00
54465;BME280;40374;49.480;20.016;2023-04-10T01:36:00;95611.31;;;2.53;100.00
54465;BME280;40374;49.480;20.016;2023-04-10T01:38:29;95610.97;;;2.36;100.00
54465;BME280;40374;49.480;20.016;2023-04-10T01:40:58;95606.44;;;2.43;100.00
54465;BME280;40374;49.480;20.016;2023-04-10T01:43:30;95609.09;;;2.43;100.00
54465;BME280;40374;49.480;20.016;2023-04-10T01:46:01;95600.47;;;2.55;100.00
54465;BME280;40374;49.480;20.016;2023-04-10T01:48:29;95604.94;;;2.61;100.00
54465;BME280;40374;49.480;20.016;2023-04-10T01:50:59;95606.13;;;2.65;100.00
54465;BME280;40374;49.480;20.016;2023-04-10T01:53:29;95595.94;;;2.62;100.00
54465;BME280;40374;49.480;20.016;2023-04-10T01:55:58;95598.56;;;2.62;100.00
54465;BME280;40374;49.480;20.016;2023-04-10T01:58:26;95601.25;;;2.62;100.00
54465;BME280;40374;49.480;20.016;2023-04-10T02:00:55;95599.63;;;2.61;100.00
54465;BME280;40374;49.480;20.016;2023-04-10T02:03:23;95611.59;;;2.70;100.00
54465;BME280;40374;49.480;20.016;2023-04-10T02:05:53;95608.34;;;2.68;100.00
54465;BME280;40374;49.480;20.016;2023-04-10T02:08:30;95603.81;;;2.75;100.00
54465;BME280;40374;49.480;20.016;2023-04-10T02:11:27;95605.19;;;2.84;100.00
54465;BME280;40374;49.480;20.016;2023-04-10T02:14:04;95599.88;;;2.84;100.00
54465;BME280;40374;49.480;20.016;2023-04-10T02:16:34;95605.03;;;2.79;100.00
54465;BME280;40374;49.480;20.016;2023-04-10T02:19:04;95606.03;;;2.78;100.00
54465;BME280;40374;49.480;20.016;2023-04-10T02:21:32;95598.31;;;2.70;100.00
54465;BME280;40374;49.480;20.016;2023-04-10T02:24:01;95614.25;;;2.70;100.00
54465;BME280;40374;49.480;20.016;2023-04-10T02:26:28;95597.97;;;2.60;100.00
54465;BME280;40374;49.480;20.016;2023-04-10T02:28:56;95611.00;;;2.68;100.00
54465;BME280;40374;49.480;20.016;2023-04-10T02:31:23;95613.84;;;2.73;100.00
54465;BME280;40374;49.480;20.016;2023-04-10T02:33:51;95616.66;;;2.78;100.00
54465;BME280;40374;49.480;20.016;2023-04-10T02:36:18;95608.00;;;2.90;100.00
54465;BME280;40374;49.480;20.016;2023-04-10T02:38:46;95610.38;;;2.98;100.00
54465;BME280;40374;49.480;20.016;2023-04-10T02:41:13;95612.84;;;2.99;100.00
54465;BME280;40374;49.480;20.016;2023-04-10T02:43:41;95608.00;;;2.90;100.00
54465;BME280;40374;49.480;20.016;2023-04-10T02:46:08;95612.94;;;2.86;100.00
54465;BME280;40374;49.480;20.016;2023-04-10T02:48:38;95612.03;;;2.99;100.00
54465;BME280;40374;49.480;20.016;2023-04-10T02:51:06;95607.06;;;3.09;100.00
54465;BME280;40374;49.480;20.016;2023-04-10T02:53:34;95612.25;;;3.22;100.00
54465;BME280;40374;49.480;20.016;2023-04-10T02:56:01;95598.69;;;3.31;100.00
54465;BME280;40374;49.480;20.016;2023-04-10T02:58:29;95609.44;;;3.42;100.00
54465;BME280;40374;49.480;20.016;2023-04-10T03:00:58;95600.78;;;3.47;100.00
54465;BME280;40374;49.480;20.016;2023-04-10T03:03:39;95601.97;;;3.51;100.00
54465;BME280;40374;49.480;20.016;2023-04-10T03:06:08;95593.72;;;3.59;100.00
54465;BME280;40374;49.480;20.016;2023-04-10T03:08:36;95612.94;;;3.61;100.00
54465;BME280;40374;49.480;20.016;2023-04-10T03:11:04;95603.03;;;3.69;100.00
54465;BME280;40374;49.480;20.016;2023-04-10T03:13:33;95611.97;;;3.74;100.00
54465;BME280;40374;49.480;20.016;2023-04-10T03:16:01;95599.69;;;3.73;100.00
54465;BME280;40374;49.480;20.016;2023-04-10T03:18:28;95604.00;;;3.74;100.00
54465;BME280;40374;49.480;20.016;2023-04-10T03:20:57;95606.88;;;3.73;100.00
54465;BME280;40374;49.480;20.016;2023-04-10T03:23:25;95614.56;;;3.81;100.00
54465;BME280;40374;49.480;20.016;2023-04-10T03:25:52;95608.47;;;3.74;100.00
54465;BME280;40374;49.480;20.016;2023-04-10T03:28:25;95611.38;;;3.72;100.00
54465;BME280;40374;49.480;20.016;2023-04-10T03:30:52;95603.63;;;3.71;100.00
54465;BME280;40374;49.480;20.016;2023-04-10T03:33:19;95600.22;;;3.82;100.00
54465;BME280;40374;49.480;20.016;2023-04-10T03:35:47;95606.59;;;3.99;100.00
54465;BME280;40374;49.480;20.016;2023-04-10T03:38:14;95603.03;;;4.05;100.00
54465;BME280;40374;49.480;20.016;2023-04-10T03:40:42;95599.19;;;4.01;100.00
54465;BME280;40374;49.480;20.016;2023-04-10T03:43:10;95602.81;;;4.07;100.00
54465;BME280;40374;49.480;20.016;2023-04-10T03:45:37;95611.84;;;4.06;100.00
54465;BME280;40374;49.480;20.016;2023-04-10T03:48:05;95593.41;;;4.04;100.00
54465;BME280;40374;49.480;20.016;2023-04-10T03:50:50;95602.66;;;4.02;100.00
54465;BME280;40374;49.480;20.016;2023-04-10T03:53:18;95588.97;;;3.98;100.00
54465;BME280;40374;49.480;20.016;2023-04-10T03:55:45;95603.47;;;4.02;100.00
54465;BME280;40374;49.480;20.016;2023-04-10T03:58:13;95595.78;;;4.13;100.00
54465;BME280;40374;49.480;20.016;2023-04-10T04:00:40;95594.75;;;4.14;100.00
54465;BME280;40374;49.480;20.016;2023-04-10T04:03:25;95588.84;;;4.12;100.00
54465;BME280;40374;49.480;20.016;2023-04-10T04:06:05;95581.44;;;4.14;100.00
54465;BME280;40374;49.480;20.016;2023-04-10T04:08:38;95588.50;;;4.38;100.00
54465;BME280;40374;49.480;20.016;2023-04-10T04:11:17;95593.19;;;4.55;100.00
54465;BME280;40374;49.480;20.016;2023-04-10T04:13:56;95596.81;;;4.60;100.00
54465;BME280;40374;49.480;20.016;2023-04-10T04:16:41;95604.72;;;4.67;100.00
54465;BME280;40374;49.480;20.016;2023-04-10T04:19:27;95605.66;;;4.73;100.00
54465;BME280;40374;49.480;20.016;2023-04-10T04:22:27;95603.00;;;4.73;100.00
54465;BME280;40374;49.480;20.016;2023-04-10T04:25:20;95598.69;;;4.72;100.00
54465;BME280;40374;49.480;20.016;2023-04-10T04:28:06;95603.31;;;4.64;100.00
54465;BME280;40374;49.480;20.016;2023-04-10T04:30:52;95609.22;;;4.66;100.00
54465;BME280;40374;49.480;20.016;2023-04-10T04:33:37;95610.53;;;4.76;100.00
54465;BME280;40374;49.480;20.016;2023-04-10T04:36:25;95612.50;;;4.80;100.00
54465;BME280;40374;49.480;20.016;2023-04-10T04:39:03;95604.38;;;4.75;100.00
54465;BME280;40374;49.480;20.016;2023-04-10T04:41:42;95621.09;;;4.82;100.00
54465;BME280;40374;49.480;20.016;2023-04-10T04:44:27;95613.41;;;4.74;100.00
54465;BME280;40374;49.480;20.016;2023-04-10T04:47:09;95616.91;;;4.75;100.00
54465;BME280;40374;49.480;20.016;2023-04-10T04:49:55;95610.72;;;4.62;100.00
54465;BME280;40374;49.480;20.016;2023-04-10T04:52:42;95620.00;;;4.72;100.00
54465;BME280;40374;49.480;20.016;2023-04-10T04:55:34;95615.06;;;4.75;100.00
54465;BME280;40374;49.480;20.016;2023-04-10T04:58:23;95605.88;;;4.71;100.00
54465;BME280;40374;49.480;20.016;2023-04-10T05:01:17;95629.31;;;4.81;100.00
54465;BME280;40374;49.480;20.016;2023-04-10T05:04:09;95622.00;;;4.76;100.00
54465;BME280;40374;49.480;20.016;2023-04-10T05:07:03;95613.72;;;4.66;100.00
54465;BME280;40374;49.480;20.016;2023-04-10T05:09:33;95622.47;;;4.73;100.00
54465;BME280;40374;49.480;20.016;2023-04-10T05:12:12;95621.50;;;4.67;100.00
54465;BME280;40374;49.480;20.016;2023-04-10T05:14:43;95625.56;;;4.70;100.00
54465;BME280;40374;49.480;20.016;2023-04-10T05:17:29;95629.97;;;4.64;100.00
54465;BME280;40374;49.480;20.016;2023-04-10T05:20:36;95623.53;;;4.84;100.00
54465;BME280;40374;49.480;20.016;2023-04-10T05:23:03;95625.03;;;4.80;100.00
54465;BME280;40374;49.480;20.016;2023-04-10T05:26:06;95635.81;;;4.85;100.00
54465;BME280;40374;49.480;20.016;2023-04-10T05:28:45;95629.13;;;4.94;100.00
54465;BME280;40374;49.480;20.016;2023-04-10T05:31:32;95631.09;;;4.99;100.00
54465;BME280;40374;49.480;20.016;2023-04-10T05:34:19;95645.19;;;5.18;100.00
54465;BME280;40374;49.480;20.016;2023-04-10T05:37:08;95638.94;;;5.24;100.00
54465;BME280;40374;49.480;20.016;2023-04-10T05:39:58;95628.63;;;5.27;100.00
54465;BME280;40374;49.480;20.016;2023-04-10T05:42:26;95639.63;;;5.31;100.00
54465;BME280;40374;49.480;20.016;2023-04-10T05:45:13;95637.75;;;5.20;100.00
54465;BME280;40374;49.480;20.016;2023-04-10T05:48:04;95645.66;;;5.15;100.00
54465;BME280;40374;49.480;20.016;2023-04-10T05:51:07;95627.41;;;5.00;100.00
54465;BME280;40374;49.480;20.016;2023-04-10T05:53:55;95630.53;;;4.97;100.00
54465;BME280;40374;49.480;20.016;2023-04-10T05:56:29;95626.56;;;4.99;100.00
54465;BME280;40374;49.480;20.016;2023-04-10T05:59:07;95629.94;;;4.95;100.00
54465;BME280;40374;49.480;20.016;2023-04-10T06:01:52;95628.19;;;4.88;100.00
54465;BME280;40374;49.480;20.016;2023-04-10T06:04:26;95627.16;;;4.90;100.00
54465;BME280;40374;49.480;20.016;2023-04-10T06:07:05;95634.56;;;4.87;100.00
54465;BME280;40374;49.480;20.016;2023-04-10T06:09:33;95630.03;;;4.88;100.00
54465;BME280;40374;49.480;20.016;2023-04-10T06:12:00;95638.63;;;4.90;100.00
54465;BME280;40374;49.480;20.016;2023-04-10T06:14:30;95635.91;;;4.78;100.00
54465;BME280;40374;49.480;20.016;2023-04-10T06:16:58;95636.38;;;4.75;100.00
54465;BME280;40374;49.480;20.016;2023-04-10T06:19:25;95631.75;;;4.82;100.00
54465;BME280;40374;49.480;20.016;2023-04-10T06:21:53;95624.34;;;4.84;100.00
54465;BME280;40374;49.480;20.016;2023-04-10T06:24:21;95618.66;;;4.81;100.00
54465;BME280;40374;49.480;20.016;2023-04-10T06:26:50;95621.88;;;4.83;100.00
54465;BME280;40374;49.480;20.016;2023-04-10T06:29:18;95631.56;;;4.96;100.00
54465;BME280;40374;49.480;20.016;2023-04-10T06:31:45;95626.47;;;5.06;100.00
54465;BME280;40374;49.480;20.016;2023-04-10T06:34:16;95641.38;;;5.25;100.00
54465;BME280;40374;49.480;20.016;2023-04-10T06:36:55;95631.41;;;5.33;100.00
54465;BME280;40374;49.480;20.016;2023-04-10T06:39:23;95628.16;;;5.31;100.00
54465;BME280;40374;49.480;20.016;2023-04-10T06:41:51;95623.97;;;5.35;100.00
54465;BME280;40374;49.480;20.016;2023-04-10T06:44:41;95640.91;;;5.28;100.00
54465;BME280;40374;49.480;20.016;2023-04-10T06:47:11;95627.09;;;5.20;100.00
54465;BME280;40374;49.480;20.016;2023-04-10T06:49:45;95635.53;;;5.05;100.00
54465;BME280;40374;49.480;20.016;2023-04-10T06:52:12;95641.75;;;4.99;100.00
54465;BME280;40374;49.480;20.016;2023-04-10T06:54:42;95651.16;;;5.01;100.00
54465;BME280;40374;49.480;20.016;2023-04-10T06:57:10;95645.38;;;5.04;100.00
54465;BME280;40374;49.480;20.016;2023-04-10T06:59:37;95652.22;;;5.12;100.00
54465;BME280;40374;49.480;20.016;2023-04-10T07:02:04;95647.38;;;5.09;100.00
54465;BME280;40374;49.480;20.016;2023-04-10T07:04:33;95649.53;;;5.00;100.00
54465;BME280;40374;49.480;20.016;2023-04-10T07:07:00;95643.13;;;4.90;100.00
54465;BME280;40374;49.480;20.016;2023-04-10T07:09:31;95643.41;;;5.00;100.00
54465;BME280;40374;49.480;20.016;2023-04-10T07:11:59;95646.66;;;5.02;100.00
54465;BME280;40374;49.480;20.016;2023-04-10T07:14:27;95632.63;;;5.06;100.00
54465;BME280;40374;49.480;20.016;2023-04-10T07:16:56;95638.81;;;5.31;100.00
54465;BME280;40374;49.480;20.016;2023-04-10T07:19:23;95635.47;;;5.23;100.00
54465;BME280;40374;49.480;20.016;2023-04-10T07:21:51;95641.38;;;5.25;100.00
54465;BME280;40374;49.480;20.016;2023-04-10T07:24:19;95628.72;;;5.33;100.00
54465;BME280;40374;49.480;20.016;2023-04-10T07:26:48;95649.41;;;5.49;100.00
54465;BME280;40374;49.480;20.016;2023-04-10T07:29:16;95643.25;;;5.37;100.00
54465;BME280;40374;49.480;20.016;2023-04-10T07:31:43;95650.53;;;5.41;100.00
54465;BME280;40374;49.480;20.016;2023-04-10T07:34:11;95645.09;;;5.48;100.00
54465;BME280;40374;49.480;20.016;2023-04-10T07:36:39;95651.38;;;5.54;100.00
54465;BME280;40374;49.480;20.016;2023-04-10T07:39:06;95642.53;;;5.41;100.00
54465;BME280;40374;49.480;20.016;2023-04-10T07:41:34;95634.44;;;5.36;100.00
54465;BME280;40374;49.480;20.016;2023-04-10T07:44:02;95644.66;;;5.51;100.00
54465;BME280;40374;49.480;20.016;2023-04-10T07:46:29;95640.34;;;5.62;100.00
54465;BME280;40374;49.480;20.016;2023-04-10T07:48:57;95641.53;;;5.66;100.00
54465;BME280;40374;49.480;20.016;2023-04-10T07:51:24;95638.03;;;5.77;100.00
54465;BME280;40374;49.480;20.016;2023-04-10T07:53:57;95645.69;;;5.85;100.00
54465;BME280;40374;49.480;20.016;2023-04-10T07:56:24;95646.41;;;5.81;100.00
54465;BME280;40374;49.480;20.016;2023-04-10T07:58:52;95641.28;;;5.79;100.00
54465;BME280;40374;49.480;20.016;2023-04-10T08:01:19;95645.38;;;5.82;100.00
54465;BME280;40374;49.480;20.016;2023-04-10T08:03:47;95649.53;;;5.78;100.00
54465;BME280;40374;49.480;20.016;2023-04-10T08:06:15;95646.16;;;5.82;100.00
54465;BME280;40374;49.480;20.016;2023-04-10T08:08:42;95640.00;;;5.70;100.00
54465;BME280;40374;49.480;20.016;2023-04-10T08:11:26;95642.34;;;5.90;100.00
54465;BME280;40374;49.480;20.016;2023-04-10T08:14:09;95645.00;;;5.78;100.00
54465;BME280;40374;49.480;20.016;2023-04-10T08:16:37;95645.47;;;5.75;100.00
54465;BME280;40374;49.480;20.016;2023-04-10T08:19:05;95642.56;;;5.77;100.00
54465;BME280;40374;49.480;20.016;2023-04-10T08:21:33;95641.19;;;5.74;100.00
54465;BME280;40374;49.480;20.016;2023-04-10T08:24:03;95649.56;;;6.01;100.00
54465;BME280;40374;49.480;20.016;2023-04-10T08:26:33;95646.97;;;6.06;100.00
54465;BME280;40374;49.480;20.016;2023-04-10T08:29:01;95650.69;;;6.17;100.00
54465;BME280;40374;49.480;20.016;2023-04-10T08:31:28;95641.50;;;6.13;100.00
54465;BME280;40374;49.480;20.016;2023-04-10T08:33:56;95643.81;;;6.21;100.00
54465;BME280;40374;49.480;20.016;2023-04-10T08:36:26;95651.03;;;6.21;100.00
54465;BME280;40374;49.480;20.016;2023-04-10T08:38:56;95648.84;;;6.18;100.00
54465;BME280;40374;49.480;20.016;2023-04-10T08:41:26;95647.63;;;6.37;100.00
54465;BME280;40374;49.480;20.016;2023-04-10T08:43:56;95633.25;;;6.26;100.00
54465;BME280;40374;49.480;20.016;2023-04-10T08:46:25;95643.22;;;6.31;100.00
54465;BME280;40374;49.480;20.016;2023-04-10T08:49:04;95638.31;;;6.52;100.00
54465;BME280;40374;49.480;20.016;2023-04-10T08:51:45;95637.72;;;6.49;100.00
54465;BME280;40374;49.480;20.016;2023-04-10T08:54:22;95646.91;;;6.54;100.00
54465;BME280;40374;49.480;20.016;2023-04-10T08:56:53;95644.72;;;6.39;100.00
54465;BME280;40374;49.480;20.016;2023-04-10T08:59:22;95644.28;;;6.30;100.00
54465;BME280;40374;49.480;20.016;2023-04-10T09:01:49;95644.88;;;6.32;100.00
54465;BME280;40374;49.480;20.016;2023-04-10T09:04:17;95638.25;;;6.35;100.00
54465;BME280;40374;49.480;20.016;2023-04-10T09:06:46;95645.75;;;6.49;100.00
54465;BME280;40374;49.480;20.016;2023-04-10T09:09:14;95634.72;;;6.46;100.00
54465;BME280;40374;49.480;20.016;2023-04-10T09:12:08;95638.03;;;6.65;100.00
54465;BME280;40374;49.480;20.016;2023-04-10T09:14:36;95639.81;;;6.47;100.00
54465;BME280;40374;49.480;20.016;2023-04-10T09:19:55;95632.00;;;6.58;100.00
54465;BME280;40374;49.480;20.016;2023-04-10T09:22:33;95640.47;;;6.66;100.00
54465;BME280;40374;49.480;20.016;2023-04-10T09:25:03;95642.41;;;6.71;100.00
54465;BME280;40374;49.480;20.016;2023-04-10T09:27:32;95626.06;;;6.84;100.00
54465;BME280;40374;49.480;20.016;2023-04-10T09:30:06;95633.63;;;6.87;100.00
54465;BME280;40374;49.480;20.016;2023-04-10T09:35:11;95628.94;;;6.95;100.00
54465;BME280;40374;49.480;20.016;2023-04-10T09:37:41;95632.28;;;7.02;100.00
54465;BME280;40374;49.480;20.016;2023-04-10T09:40:25;95627.25;;;7.05;100.00
54465;BME280;40374;49.480;20.016;2023-04-10T09:42:55;95626.25;;;6.95;100.00
54465;BME280;40374;49.480;20.016;2023-04-10T09:45:23;95632.50;;;6.83;100.00
54465;BME280;40374;49.480;20.016;2023-04-10T09:50:39;95638.38;;;6.97;100.00
54465;BME280;40374;49.480;20.016;2023-04-10T09:53:16;95627.09;;;6.95;100.00
54465;BME280;40374;49.480;20.016;2023-04-10T09:55:51;95633.16;;;6.90;100.00
54465;BME280;40374;49.480;20.016;2023-04-10T09:58:20;95621.81;;;7.00;100.00
54465;BME280;40374;49.480;20.016;2023-04-10T10:00:53;95621.59;;;7.02;100.00
54465;BME280;40374;49.480;20.016;2023-04-10T10:03:25;95608.97;;;7.14;100.00
54465;BME280;40374;49.480;20.016;2023-04-10T10:05:55;95616.72;;;7.16;100.00
54465;BME280;40374;49.480;20.016;2023-04-10T10:08:24;95610.41;;;7.05;100.00
54465;BME280;40374;49.480;20.016;2023-04-10T10:10:56;95613.44;;;7.25;100.00
54465;BME280;40374;49.480;20.016;2023-04-10T10:16:18;95610.25;;;7.11;100.00
54465;BME280;40374;49.480;20.016;2023-04-10T10:19:25;95598.81;;;6.99;100.00
54465;BME280;40374;49.480;20.016;2023-04-10T10:21:54;95607.47;;;6.89;100.00
54465;BME280;40374;49.480;20.016;2023-04-10T10:24:22;95609.38;;;7.23;100.00
54465;BME280;40374;49.480;20.016;2023-04-10T10:26:54;95589.84;;;7.56;100.00
54465;BME280;40374;49.480;20.016;2023-04-10T10:29:22;95599.03;;;7.82;100.00
54465;BME280;40374;49.480;20.016;2023-04-10T10:31:51;95587.72;;;7.97;100.00
54465;BME280;40374;49.480;20.016;2023-04-10T10:34:19;95590.53;;;8.07;100.00
54465;BME280;40374;49.480;20.016;2023-04-10T10:36:48;95595.59;;;8.26;100.00
54465;BME280;40374;49.480;20.016;2023-04-10T10:40:23;95593.69;;;8.43;100.00
54465;BME280;40374;49.480;20.016;2023-04-10T10:45:14;95591.06;;;8.48;100.00
54465;BME280;40374;49.480;20.016;2023-04-10T10:47:53;95581.47;;;8.52;100.00
54465;BME280;40374;49.480;20.016;2023-04-10T10:50:21;95579.63;;;8.36;100.00
54465;BME280;40374;49.480;20.016;2023-04-10T10:52:51;95562.56;;;8.20;100.00
54465;BME280;40374;49.480;20.016;2023-04-10T10:57:52;95572.88;;;8.50;100.00
54465;BME280;40374;49.480;20.016;2023-04-10T11:00:20;95576.41;;;8.56;100.00
54465;BME280;40374;49.480;20.016;2023-04-10T11:05:58;95574.03;;;8.60;100.00
54465;BME280;40374;49.480;20.016;2023-04-10T11:11:06;95573.94;;;8.54;100.00
54465;BME280;40374;49.480;20.016;2023-04-10T11:13:36;95565.97;;;8.60;100.00
54465;BME280;40374;49.480;20.016;2023-04-10T11:16:05;95561.75;;;8.64;100.00
54465;BME280;40374;49.480;20.016;2023-04-10T11:21:28;95565.88;;;8.77;100.00
54465;BME280;40374;49.480;20.016;2023-04-10T11:26:41;95555.16;;;8.77;100.00
54465;BME280;40374;49.480;20.016;2023-04-10T11:32:02;95563.25;;;8.82;100.00
54465;BME280;40374;49.480;20.016;2023-04-10T11:34:31;95554.94;;;8.83;100.00
54465;BME280;40374;49.480;20.016;2023-04-10T11:36:59;95552.13;;;8.95;100.00
54465;BME280;40374;49.480;20.016;2023-04-10T11:39:29;95549.25;;;9.07;100.00
54465;BME280;40374;49.480;20.016;2023-04-10T11:41:57;95552.03;;;9.17;100.00
54465;BME280;40374;49.480;20.016;2023-04-10T11:46:53;95533.78;;;9.19;100.00
54465;BME280;40374;49.480;20.016;2023-04-10T11:49:29;95540.25;;;9.18;100.00
54465;BME280;40374;49.480;20.016;2023-04-10T11:51:57;95541.63;;;9.26;100.00
54465;BME280;40374;49.480;20.016;2023-04-10T11:54:26;95536.09;;;9.43;100.00
54465;BME280;40374;49.480;20.016;2023-04-10T11:57:00;95542.56;;;9.47;100.00
54465;BME280;40374;49.480;20.016;2023-04-10T11:59:30;95537.34;;;9.30;100.00
54465;BME280;40374;49.480;20.016;2023-04-10T12:02:09;95536.84;;;9.33;100.00
54465;BME280;40374;49.480;20.016;2023-04-10T12:04:38;95540.19;;;9.13;100.00
54465;BME280;40374;49.480;20.016;2023-04-10T12:07:07;95535.66;;;9.19;100.00
54465;BME280;40374;49.480;20.016;2023-04-10T12:09:35;95537.81;;;9.22;100.00
54465;BME280;40374;49.480;20.016;2023-04-10T12:12:06;95530.09;;;9.25;100.00
54465;BME280;40374;49.480;20.016;2023-04-10T12:14:40;95524.38;;;9.17;100.00
54465;BME280;40374;49.480;20.016;2023-04-10T12:17:09;95532.03;;;9.03;100.00
54465;BME280;40374;49.480;20.016;2023-04-10T12:19:37;95519.50;;;8.76;100.00
54465;BME280;40374;49.480;20.016;2023-04-10T12:22:05;95526.31;;;8.62;100.00
54465;BME280;40374;49.480;20.016;2023-04-10T12:24:49;95532.25;;;8.64;100.00
54465;BME280;40374;49.480;20.016;2023-04-10T12:27:26;95514.91;;;8.44;100.00
54465;BME280;40374;49.480;20.016;2023-04-10T12:29:58;95507.84;;;8.38;100.00
54465;BME280;40374;49.480;20.016;2023-04-10T12:32:26;95520.75;;;8.41;100.00
54465;BME280;40374;49.480;20.016;2023-04-10T12:34:56;95510.91;;;8.47;100.00
54465;BME280;40374;49.480;20.016;2023-04-10T12:37:25;95503.97;;;8.51;100.00
54465;BME280;40374;49.480;20.016;2023-04-10T12:40:12;95500.72;;;8.49;100.00
54465;BME280;40374;49.480;20.016;2023-04-10T12:42:40;95499.38;;;8.46;100.00
54465;BME280;40374;49.480;20.016;2023-04-10T12:45:10;95493.31;;;8.34;100.00
54465;BME280;40374;49.480;20.016;2023-04-10T12:47:49;95486.53;;;8.48;100.00
54465;BME280;40374;49.480;20.016;2023-04-10T12:50:21;95482.81;;;8.54;100.00
54465;BME280;40374;49.480;20.016;2023-04-10T12:53:03;95485.97;;;8.46;100.00
54465;BME280;40374;49.480;20.016;2023-04-10T12:55:32;95473.13;;;8.48;100.00
54465;BME280;40374;49.480;20.016;2023-04-10T12:58:15;95486.53;;;8.81;100.00
54465;BME280;40374;49.480;20.016;2023-04-10T13:00:45;95476.53;;;8.71;100.00
54465;BME280;40374;49.480;20.016;2023-04-10T13:03:13;95481.28;;;8.64;100.00
54465;BME280;40374;49.480;20.016;2023-04-10T13:05:41;95471.28;;;8.54;100.00
54465;BME280;40374;49.480;20.016;2023-04-10T13:08:08;95471.38;;;8.64;100.00
54465;BME280;40374;49.480;20.016;2023-04-10T13:10:36;95454.34;;;8.48;100.00
54465;BME280;40374;49.480;20.016;2023-04-10T13:13:04;95457.59;;;8.28;100.00
54465;BME280;40374;49.480;20.016;2023-04-10T13:15:33;95459.53;;;8.33;100.00
54465;BME280;40374;49.480;20.016;2023-04-10T13:18:00;95442.22;;;8.41;100.00
54465;BME280;40374;49.480;20.016;2023-04-10T13:20:38;95453.47;;;8.70;100.00
54465;BME280;40374;49.480;20.016;2023-04-10T13:23:07;95454.25;;;8.70;100.00
54465;BME280;40374;49.480;20.016;2023-04-10T13:25:37;95450.97;;;8.96;100.00
54465;BME280;40374;49.480;20.016;2023-04-10T13:28:09;95460.16;;;9.05;100.00
54465;BME280;40374;49.480;20.016;2023-04-10T13:30:40;95454.06;;;9.14;100.00
54465;BME280;40374;49.480;20.016;2023-04-10T13:33:08;95436.63;;;9.17;100.00
54465;BME280;40374;49.480;20.016;2023-04-10T13:35:36;95437.22;;;9.24;100.00
54465;BME280;40374;49.480;20.016;2023-04-10T13:38:03;95444.19;;;9.25;100.00
54465;BME280;40374;49.480;20.016;2023-04-10T13:40:31;95445.53;;;9.23;100.00
54465;BME280;40374;49.480;20.016;2023-04-10T13:42:59;95435.66;;;9.33;100.00
54465;BME280;40374;49.480;20.016;2023-04-10T13:45:27;95434.06;;;9.38;100.00
54465;BME280;40374;49.480;20.016;2023-04-10T13:47:54;95421.78;;;9.52;100.00
54465;BME280;40374;49.480;20.016;2023-04-10T13:50:22;95430.50;;;9.85;100.00
54465;BME280;40374;49.480;20.016;2023-04-10T13:52:49;95426.81;;;9.96;100.00
54465;BME280;40374;49.480;20.016;2023-04-10T13:55:19;95428.22;;;10.19;100.00
54465;BME280;40374;49.480;20.016;2023-04-10T13:57:47;95419.38;;;10.39;100.00